sensor_id;sensor_type;location;lat;lon;timestamp;temperature;humidity
71096;DHT22;58753;49.440;11.126;2024-02-16T00:01:42;5.25;92.71
71096;DHT22;58753;49.440;11.126;2024-02-16T00:04:07;5.22;92.76
71096;DHT22;58753;49.440;11.126;2024-02-16T00:06:33;5.23;92.66
71096;DHT22;58753;49.440;11.126;2024-02-16T00:08:59;5.22;92.65
71096;DHT22;58753;49.440;11.126;2024-02-16T00:11:24;5.20;92.77
71096;DHT22;58753;49.440;11.126;2024-02-16T00:13:50;5.22;92.86
71096;DHT22;58753;49.440;11.126;2024-02-16T00:16:16;5.19;92.84
71096;DHT22;58753;49.440;11.126;2024-02-16T00:18:41;5.23;92.86
71096;DHT22;58753;49.440;11.126;2024-02-16T00:21:06;5.22;92.91
71096;DHT22;58753;49.440;11.126;2024-02-16T00:23:32;5.23;92.89
71096;DHT22;58753;49.440;11.126;2024-02-16T00:25:59;5.25;92.92
71096;DHT22;58753;49.440;11.126;2024-02-16T00:28:24;5.25;92.80
71096;DHT22;58753;49.440;11.126;2024-02-16T00:30:49;5.25;92.80
71096;DHT22;58753;49.440;11.126;2024-02-16T00:33:15;5.29;92.99
71096;DHT22;58753;49.440;11.126;2024-02-16T00:35:42;5.32;92.95
71096;DHT22;58753;49.440;11.126;2024-02-16T00:38:08;5.35;92.94
71096;DHT22;58753;49.440;11.126;2024-02-16T00:40:33;5.35;92.97
71096;DHT22;58753;49.440;11.126;2024-02-16T00:42:59;5.40;92.94
71096;DHT22;58753;49.440;11.126;2024-02-16T00:45:24;5.40;92.95
71096;DHT22;58753;49.440;11.126;2024-02-16T00:47:50;5.42;92.88
71096;DHT22;58753;49.440;11.126;2024-02-16T00:50:15;5.39;92.81
71096;DHT22;58753;49.440;11.126;2024-02-16T00:52:41;5.37;92.85
71096;DHT22;58753;49.440;11.126;2024-02-16T00:55:06;5.39;92.80
71096;DHT22;58753;49.440;11.126;2024-02-16T00:57:32;5.39;92.98
71096;DHT22;58753;49.440;11.126;2024-02-16T00:59:59;5.42;93.19
71096;DHT22;58753;49.440;11.126;2024-02-16T01:02:25;5.50;93.35
71096;DHT22;58753;49.440;11.126;2024-02-16T01:04:51;5.54;93.31
71096;DHT22;58753;49.440;11.126;2024-02-16T01:07:17;5.57;93.23
71096;DHT22;58753;49.440;11.126;2024-02-16T01:09:42;5.60;93.16
71096;DHT22;58753;49.440;11.126;2024-02-16T01:12:08;5.61;93.14
71096;DHT22;58753;49.440;11.126;2024-02-16T01:14:34;5.61;93.16
71096;DHT22;58753;49.440;11.126;2024-02-16T01:16:59;5.61;93.08
71096;DHT22;58753;49.440;11.126;2024-02-16T01:19:25;5.63;93.21
71096;DHT22;58753;49.440;11.126;2024-02-16T01:21:50;5.69;93.33
71096;DHT22;58753;49.440;11.126;2024-02-16T01:24:18;5.67;93.19
71096;DHT22;58753;49.440;11.126;2024-02-16T01:26:45;5.70;93.23
71096;DHT22;58753;49.440;11.126;2024-02-16T01:29:10;5.73;93.37
71096;DHT22;58753;49.440;11.126;2024-02-16T01:31:36;5.74;93.42
71096;DHT22;58753;49.440;11.126;2024-02-16T01:34:02;5.77;93.40
71096;DHT22;58753;49.440;11.126;2024-02-16T01:36:27;5.78;93.40
71096;DHT22;58753;49.440;11.126;2024-02-16T01:38:53;5.83;93.33
71096;DHT22;58753;49.440;11.126;2024-02-16T01:41:18;5.78;93.30
71096;DHT22;58753;49.440;11.126;2024-02-16T01:43:43;5.81;93.36
71096;DHT22;58753;49.440;11.126;2024-02-16T01:46:09;5.81;93.37
71096;DHT22;58753;49.440;11.126;2024-02-16T01:48:34;5.78;93.31
71096;DHT22;58753;49.440;11.126;2024-02-16T01:51:00;5.83;93.43
71096;DHT22;58753;49.440;11.126;2024-02-16T01:53:27;5.84;93.47
71096;DHT22;58753;49.440;11.126;2024-02-16T01:55:53;5.86;93.51
71096;DHT22;58753;49.440;11.126;2024-02-16T01:58:19;5.83;93.45
71096;DHT22;58753;49.440;11.126;2024-02-16T02:00:44;5.81;93.35
71096;DHT22;58753;49.440;11.126;2024-02-16T02:03:10;5.77;93.25
71096;DHT22;58753;49.440;11.126;2024-02-16T02:05:46;5.75;93.32
71096;DHT22;58753;49.440;11.126;2024-02-16T02:08:12;5.74;93.53
71096;DHT22;58753;49.440;11.126;2024-02-16T02:10:37;5.77;93.60
71096;DHT22;58753;49.440;11.126;2024-02-16T02:13:03;5.80;93.75
71096;DHT22;58753;49.440;11.126;2024-02-16T02:15:28;5.81;93.68
71096;DHT22;58753;49.440;11.126;2024-02-16T02:17:54;5.83;93.78
71096;DHT22;58753;49.440;11.126;2024-02-16T02:20:19;5.84;93.68
71096;DHT22;58753;49.440;11.126;2024-02-16T02:22:44;5.84;93.70
71096;DHT22;58753;49.440;11.126;2024-02-16T02:25:10;5.86;93.63
71096;DHT22;58753;49.440;11.126;2024-02-16T02:27:37;5.84;93.72
71096;DHT22;58753;49.440;11.126;2024-02-16T02:30:03;5.83;93.69
71096;DHT22;58753;49.440;11.126;2024-02-16T02:32:28;5.83;93.66
71096;DHT22;58753;49.440;11.126;2024-02-16T02:34:54;5.84;93.72
71096;DHT22;58753;49.440;11.126;2024-02-16T02:37:19;5.83;93.73
71096;DHT22;58753;49.440;11.126;2024-02-16T02:39:45;5.80;93.70
71096;DHT22;58753;49.440;11.126;2024-02-16T02:42:10;5.80;93.89
71096;DHT22;58753;49.440;11.126;2024-02-16T02:44:35;5.81;93.89
71096;DHT22;58753;49.440;11.126;2024-02-16T02:47:01;5.80;93.81
71096;DHT22;58753;49.440;11.126;2024-02-16T02:49:26;5.81;93.87
71096;DHT22;58753;49.440;11.126;2024-02-16T02:51:52;5.77;93.73
71096;DHT22;58753;49.440;11.126;2024-02-16T02:54:17;5.77;93.78
71096;DHT22;58753;49.440;11.126;2024-02-16T02:56:43;5.77;93.93
71096;DHT22;58753;49.440;11.126;2024-02-16T02:59:09;5.78;94.09
71096;DHT22;58753;49.440;11.126;2024-02-16T03:01:36;5.81;94.12
71096;DHT22;58753;49.440;11.126;2024-02-16T03:04:02;5.81;94.02
71096;DHT22;58753;49.440;11.126;2024-02-16T03:06:28;5.81;94.05
71096;DHT22;58753;49.440;11.126;2024-02-16T03:08:53;5.81;94.09
71096;DHT22;58753;49.440;11.126;2024-02-16T03:11:18;5.84;94.09
71096;DHT22;58753;49.440;11.126;2024-02-16T03:13:44;5.84;94.17
71096;DHT22;58753;49.440;11.126;2024-02-16T03:16:09;5.84;94.12
71096;DHT22;58753;49.440;11.126;2024-02-16T03:18:35;5.83;94.06
71096;DHT22;58753;49.440;11.126;2024-02-16T03:21:01;5.86;94.08
71096;DHT22;58753;49.440;11.126;2024-02-16T03:23:27;5.84;94.09
71096;DHT22;58753;49.440;11.126;2024-02-16T03:25:52;5.86;94.19
71096;DHT22;58753;49.440;11.126;2024-02-16T03:28:18;5.89;94.28
71096;DHT22;58753;49.440;11.126;2024-02-16T03:30:44;5.90;94.23
71096;DHT22;58753;49.440;11.126;2024-02-16T03:33:10;5.94;94.21
71096;DHT22;58753;49.440;11.126;2024-02-16T03:35:36;5.93;94.13
71096;DHT22;58753;49.440;11.126;2024-02-16T03:38:02;5.91;94.18
71096;DHT22;58753;49.440;11.126;2024-02-16T03:40:28;5.91;94.29
71096;DHT22;58753;49.440;11.126;2024-02-16T03:42:54;5.95;94.30
71096;DHT22;58753;49.440;11.126;2024-02-16T03:45:20;5.93;94.26
71096;DHT22;58753;49.440;11.126;2024-02-16T03:47:45;5.94;94.26
71096;DHT22;58753;49.440;11.126;2024-02-16T03:50:14;5.93;94.24
71096;DHT22;58753;49.440;11.126;2024-02-16T03:52:40;5.90;94.16
71096;DHT22;58753;49.440;11.126;2024-02-16T03:55:05;5.83;94.08
71096;DHT22;58753;49.440;11.126;2024-02-16T03:57:31;5.78;94.14
71096;DHT22;58753;49.440;11.126;2024-02-16T03:59:57;5.77;94.23
71096;DHT22;58753;49.440;11.126;2024-02-16T04:02:22;5.75;94.36
71096;DHT22;58753;49.440;11.126;2024-02-16T04:04:48;5.75;94.40
71096;DHT22;58753;49.440;11.126;2024-02-16T04:07:14;5.75;94.39
71096;DHT22;58753;49.440;11.126;2024-02-16T04:09:39;5.74;94.40
71096;DHT22;58753;49.440;11.126;2024-02-16T04:12:05;5.74;94.45
71096;DHT22;58753;49.440;11.126;2024-02-16T04:14:30;5.70;94.43
71096;DHT22;58753;49.440;11.126;2024-02-16T04:16:56;5.70;94.50
71096;DHT22;58753;49.440;11.126;2024-02-16T04:19:28;5.73;94.54
71096;DHT22;58753;49.440;11.126;2024-02-16T04:21:55;5.71;94.49
71096;DHT22;58753;49.440;11.126;2024-02-16T04:24:20;5.67;94.43
71096;DHT22;58753;49.440;11.126;2024-02-16T04:26:46;5.70;94.47
71096;DHT22;58753;49.440;11.126;2024-02-16T04:29:11;5.67;94.47
71096;DHT22;58753;49.440;11.126;2024-02-16T04:31:40;5.67;94.45
71096;DHT22;58753;49.440;11.126;2024-02-16T04:34:10;5.67;94.56
71096;DHT22;58753;49.440;11.126;2024-02-16T04:36:35;5.70;94.64
71096;DHT22;58753;49.440;11.126;2024-02-16T04:39:01;5.73;94.65
71096;DHT22;58753;49.440;11.126;2024-02-16T04:41:26;5.73;94.71
71096;DHT22;58753;49.440;11.126;2024-02-16T04:43:52;5.77;94.61
71096;DHT22;58753;49.440;11.126;2024-02-16T04:46:18;5.77;94.69
71096;DHT22;58753;49.440;11.126;2024-02-16T04:48:43;5.81;94.75
71096;DHT22;58753;49.440;11.126;2024-02-16T04:51:10;5.83;94.67
71096;DHT22;58753;49.440;11.126;2024-02-16T04:53:35;5.87;94.64
71096;DHT22;58753;49.440;11.126;2024-02-16T04:56:01;5.87;94.72
71096;DHT22;58753;49.440;11.126;2024-02-16T04:58:27;5.93;94.70
71096;DHT22;58753;49.440;11.126;2024-02-16T05:00:53;5.94;94.75
71096;DHT22;58753;49.440;11.126;2024-02-16T05:03:18;5.98;94.75
71096;DHT22;58753;49.440;11.126;2024-02-16T05:05:43;6.02;94.76
71096;DHT22;58753;49.440;11.126;2024-02-16T05:08:09;6.07;94.74
71096;DHT22;58753;49.440;11.126;2024-02-16T05:10:34;6.08;94.82
71096;DHT22;58753;49.440;11.126;2024-02-16T05:13:00;6.14;94.76
71096;DHT22;58753;49.440;11.126;2024-02-16T05:15:25;6.18;94.71
71096;DHT22;58753;49.440;11.126;2024-02-16T05:17:51;6.20;94.65
71096;DHT22;58753;49.440;11.126;2024-02-16T05:20:16;6.17;94.63
71096;DHT22;58753;49.440;11.126;2024-02-16T05:22:43;6.18;94.65
71096;DHT22;58753;49.440;11.126;2024-02-16T05:25:09;6.17;94.72
71096;DHT22;58753;49.440;11.126;2024-02-16T05:27:36;6.18;94.68
71096;DHT22;58753;49.440;11.126;2024-02-16T05:30:03;6.18;94.71
71096;DHT22;58753;49.440;11.126;2024-02-16T05:32:29;6.22;94.70
71096;DHT22;58753;49.440;11.126;2024-02-16T05:34:55;6.20;94.66
71096;DHT22;58753;49.440;11.126;2024-02-16T05:37:20;6.18;94.68
71096;DHT22;58753;49.440;11.126;2024-02-16T05:39:47;6.21;94.74
71096;DHT22;58753;49.440;11.126;2024-02-16T05:42:34;6.21;94.73
71096;DHT22;58753;49.440;11.126;2024-02-16T05:45:00;6.20;94.72
71096;DHT22;58753;49.440;11.126;2024-02-16T05:47:27;6.21;94.73
71096;DHT22;58753;49.440;11.126;2024-02-16T05:49:53;6.21;94.68
71096;DHT22;58753;49.440;11.126;2024-02-16T05:52:18;6.21;94.72
71096;DHT22;58753;49.440;11.126;2024-02-16T05:54:45;6.22;94.70
71096;DHT22;58753;49.440;11.126;2024-02-16T05:57:10;6.22;94.75
71096;DHT22;58753;49.440;11.126;2024-02-16T05:59:35;6.18;94.71
71096;DHT22;58753;49.440;11.126;2024-02-16T06:02:01;6.22;94.73
71096;DHT22;58753;49.440;11.126;2024-02-16T06:04:29;6.21;94.73
71096;DHT22;58753;49.440;11.126;2024-02-16T06:06:55;6.20;94.75
71096;DHT22;58753;49.440;11.126;2024-02-16T06:09:20;6.18;94.69
71096;DHT22;58753;49.440;11.126;2024-02-16T06:11:46;6.18;94.68
71096;DHT22;58753;49.440;11.126;2024-02-16T06:14:11;6.15;94.76
71096;DHT22;58753;49.440;11.126;2024-02-16T06:16:36;6.17;94.80
71096;DHT22;58753;49.440;11.126;2024-02-16T06:19:03;6.15;94.79
71096;DHT22;58753;49.440;11.126;2024-02-16T06:21:29;6.15;94.83
71096;DHT22;58753;49.440;11.126;2024-02-16T06:23:54;6.11;94.79
71096;DHT22;58753;49.440;11.126;2024-02-16T06:26:20;6.11;94.77
71096;DHT22;58753;49.440;11.126;2024-02-16T06:28:45;6.10;94.81
71096;DHT22;58753;49.440;11.126;2024-02-16T06:31:12;6.07;94.83
71096;DHT22;58753;49.440;11.126;2024-02-16T06:33:38;6.05;94.89
71096;DHT22;58753;49.440;11.126;2024-02-16T06:36:04;6.02;94.82
71096;DHT22;58753;49.440;11.126;2024-02-16T06:38:29;6.01;94.75
71096;DHT22;58753;49.440;11.126;2024-02-16T06:40:54;5.98;94.81
71096;DHT22;58753;49.440;11.126;2024-02-16T06:43:20;5.95;94.96
71096;DHT22;58753;49.440;11.126;2024-02-16T06:45:45;5.97;95.02
71096;DHT22;58753;49.440;11.126;2024-02-16T06:48:11;5.93;94.97
71096;DHT22;58753;49.440;11.126;2024-02-16T06:50:37;5.90;95.03
71096;DHT22;58753;49.440;11.126;2024-02-16T06:53:02;5.86;95.07
71096;DHT22;58753;49.440;11.126;2024-02-16T06:55:27;5.87;95.13
71096;DHT22;58753;49.440;11.126;2024-02-16T06:57:53;5.87;95.08
71096;DHT22;58753;49.440;11.126;2024-02-16T07:00:18;5.87;95.16
71096;DHT22;58753;49.440;11.126;2024-02-16T07:02:45;5.86;95.16
71096;DHT22;58753;49.440;11.126;2024-02-16T07:05:11;5.87;95.19
71096;DHT22;58753;49.440;11.126;2024-02-16T07:07:37;5.90;95.21
71096;DHT22;58753;49.440;11.126;2024-02-16T07:10:02;5.93;95.24
71096;DHT22;58753;49.440;11.126;2024-02-16T07:12:28;5.94;95.23
71096;DHT22;58753;49.440;11.126;2024-02-16T07:14:53;5.97;95.13
71096;DHT22;58753;49.440;11.126;2024-02-16T07:17:19;5.95;95.14
71096;DHT22;58753;49.440;11.126;2024-02-16T07:19:44;6.00;95.19
71096;DHT22;58753;49.440;11.126;2024-02-16T07:22:10;6.01;95.24
71096;DHT22;58753;49.440;11.126;2024-02-16T07:24:37;6.07;95.24
71096;DHT22;58753;49.440;11.126;2024-02-16T07:27:03;6.05;95.25
71096;DHT22;58753;49.440;11.126;2024-02-16T07:29:28;6.10;95.26
71096;DHT22;58753;49.440;11.126;2024-02-16T07:31:54;6.11;95.25
71096;DHT22;58753;49.440;11.126;2024-02-16T07:34:21;6.14;95.27
71096;DHT22;58753;49.440;11.126;2024-02-16T07:36:46;6.14;95.25
71096;DHT22;58753;49.440;11.126;2024-02-16T07:39:11;6.20;95.31
71096;DHT22;58753;49.440;11.126;2024-02-16T07:41:38;6.25;95.32
71096;DHT22;58753;49.440;11.126;2024-02-16T07:44:04;6.29;95.36
71096;DHT22;58753;49.440;11.126;2024-02-16T07:46:29;6.34;95.30
71096;DHT22;58753;49.440;11.126;2024-02-16T07:48:55;6.44;95.39
71096;DHT22;58753;49.440;11.126;2024-02-16T07:51:20;6.52;95.41
71096;DHT22;58753;49.440;11.126;2024-02-16T07:53:46;6.63;95.42
71096;DHT22;58753;49.440;11.126;2024-02-16T07:56:12;6.75;95.41
71096;DHT22;58753;49.440;11.126;2024-02-16T07:58:38;6.83;95.41
71096;DHT22;58753;49.440;11.126;2024-02-16T08:01:03;7.03;95.55
71096;DHT22;58753;49.440;11.126;2024-02-16T08:03:28;7.21;95.61
71096;DHT22;58753;49.440;11.126;2024-02-16T08:05:55;7.48;95.49
71096;DHT22;58753;49.440;11.126;2024-02-16T08:08:22;7.70;95.23
71096;DHT22;58753;49.440;11.126;2024-02-16T08:10:48;7.91;95.05
71096;DHT22;58753;49.440;11.126;2024-02-16T08:13:13;8.02;94.69
71096;DHT22;58753;49.440;11.126;2024-02-16T08:15:39;8.22;94.48
71096;DHT22;58753;49.440;11.126;2024-02-16T08:18:04;8.34;94.22
71096;DHT22;58753;49.440;11.126;2024-02-16T08:20:30;8.46;93.89
71096;DHT22;58753;49.440;11.126;2024-02-16T08:22:56;8.63;93.40
71096;DHT22;58753;49.440;11.126;2024-02-16T08:25:21;8.71;93.33
71096;DHT22;58753;49.440;11.126;2024-02-16T08:27:48;8.81;92.93
71096;DHT22;58753;49.440;11.126;2024-02-16T08:30:14;8.88;92.44
71096;DHT22;58753;49.440;11.126;2024-02-16T08:32:40;8.98;92.31
71096;DHT22;58753;49.440;11.126;2024-02-16T08:35:05;9.10;92.07
71096;DHT22;58753;49.440;11.126;2024-02-16T08:37:31;9.21;91.68
71096;DHT22;58753;49.440;11.126;2024-02-16T08:39:57;9.31;91.68
71096;DHT22;58753;49.440;11.126;2024-02-16T08:42:23;9.38;91.20
71096;DHT22;58753;49.440;11.126;2024-02-16T08:44:49;9.42;91.02
71096;DHT22;58753;49.440;11.126;2024-02-16T08:47:15;9.50;90.79
71096;DHT22;58753;49.440;11.126;2024-02-16T08:49:41;9.53;90.55
71096;DHT22;58753;49.440;11.126;2024-02-16T08:52:07;9.55;90.07
71096;DHT22;58753;49.440;11.126;2024-02-16T08:54:33;9.65;90.11
71096;DHT22;58753;49.440;11.126;2024-02-16T08:56:59;9.75;90.04
71096;DHT22;58753;49.440;11.126;2024-02-16T08:59:25;9.79;89.46
71096;DHT22;58753;49.440;11.126;2024-02-16T09:01:51;9.89;89.54
71096;DHT22;58753;49.440;11.126;2024-02-16T09:04:17;10.00;89.22
71096;DHT22;58753;49.440;11.126;2024-02-16T09:06:42;10.07;88.56
71096;DHT22;58753;49.440;11.126;2024-02-16T09:09:08;10.18;88.28
71096;DHT22;58753;49.440;11.126;2024-02-16T09:11:33;10.25;88.07
71096;DHT22;58753;49.440;11.126;2024-02-16T09:14:01;10.37;87.87
71096;DHT22;58753;49.440;11.126;2024-02-16T09:16:27;10.48;87.42
71096;DHT22;58753;49.440;11.126;2024-02-16T09:18:52;10.57;86.43
71096;DHT22;58753;49.440;11.126;2024-02-16T09:21:18;10.65;85.85
71096;DHT22;58753;49.440;11.126;2024-02-16T09:23:45;10.71;85.23
71096;DHT22;58753;49.440;11.126;2024-02-16T09:26:10;10.84;85.44
71096;DHT22;58753;49.440;11.126;2024-02-16T09:28:39;10.95;84.37
71096;DHT22;58753;49.440;11.126;2024-02-16T09:31:06;11.05;84.19
71096;DHT22;58753;49.440;11.126;2024-02-16T09:33:33;11.15;83.26
71096;DHT22;58753;49.440;11.126;2024-02-16T09:35:58;11.26;83.26
71096;DHT22;58753;49.440;11.126;2024-02-16T09:38:24;11.39;83.04
71096;DHT22;58753;49.440;11.126;2024-02-16T09:40:50;11.47;82.36
71096;DHT22;58753;49.440;11.126;2024-02-16T09:43:29;11.55;81.92
71096;DHT22;58753;49.440;11.126;2024-02-16T09:45:58;11.59;81.42
71096;DHT22;58753;49.440;11.126;2024-02-16T09:48:28;11.66;79.94
71096;DHT22;58753;49.440;11.126;2024-02-16T09:50:55;11.73;80.31
71096;DHT22;58753;49.440;11.126;2024-02-16T09:53:24;11.84;80.32
71096;DHT22;58753;49.440;11.126;2024-02-16T09:55:49;11.91;79.53
71096;DHT22;58753;49.440;11.126;2024-02-16T09:58:17;11.94;78.96
71096;DHT22;58753;49.440;11.126;2024-02-16T10:00:50;11.94;79.15
71096;DHT22;58753;49.440;11.126;2024-02-16T10:03:29;12.00;78.75
71096;DHT22;58753;49.440;11.126;2024-02-16T10:06:09;12.05;78.60
71096;DHT22;58753;49.440;11.126;2024-02-16T10:08:52;12.11;78.17
71096;DHT22;58753;49.440;11.126;2024-02-16T10:11:21;12.16;78.08
71096;DHT22;58753;49.440;11.126;2024-02-16T10:14:01;12.18;77.90
71096;DHT22;58753;49.440;11.126;2024-02-16T10:16:28;12.24;77.19
71096;DHT22;58753;49.440;11.126;2024-02-16T10:19:12;12.25;76.50
71096;DHT22;58753;49.440;11.126;2024-02-16T10:21:38;12.28;76.28
71096;DHT22;58753;49.440;11.126;2024-02-16T10:24:08;12.38;76.36
71096;DHT22;58753;49.440;11.126;2024-02-16T10:26:35;12.41;76.30
71096;DHT22;58753;49.440;11.126;2024-02-16T10:29:17;12.51;76.12
71096;DHT22;58753;49.440;11.126;2024-02-16T10:31:47;12.51;75.45
71096;DHT22;58753;49.440;11.126;2024-02-16T10:34:13;12.52;75.22
71096;DHT22;58753;49.440;11.126;2024-02-16T10:36:39;12.48;74.99
71096;DHT22;58753;49.440;11.126;2024-02-16T10:39:06;12.51;74.79
71096;DHT22;58753;49.440;11.126;2024-02-16T10:41:40;12.49;74.75
71096;DHT22;58753;49.440;11.126;2024-02-16T10:44:06;12.46;74.43
71096;DHT22;58753;49.440;11.126;2024-02-16T10:46:33;12.45;74.53
71096;DHT22;58753;49.440;11.126;2024-02-16T10:48:58;12.51;74.26
71096;DHT22;58753;49.440;11.126;2024-02-16T10:51:47;12.49;74.11
71096;DHT22;58753;49.440;11.126;2024-02-16T10:54:17;12.52;74.02
71096;DHT22;58753;49.440;11.126;2024-02-16T10:56:43;12.51;73.88
71096;DHT22;58753;49.440;11.126;2024-02-16T10:59:09;12.56;73.86
71096;DHT22;58753;49.440;11.126;2024-02-16T11:01:39;12.56;73.75
71096;DHT22;58753;49.440;11.126;2024-02-16T11:04:06;12.58;73.64
71096;DHT22;58753;49.440;11.126;2024-02-16T11:06:47;12.54;73.60
71096;DHT22;58753;49.440;11.126;2024-02-16T11:09:29;12.55;73.50
71096;DHT22;58753;49.440;11.126;2024-02-16T11:11:59;12.55;73.45
71096;DHT22;58753;49.440;11.126;2024-02-16T11:19:40;12.51;73.25
71096;DHT22;58753;49.440;11.126;2024-02-16T11:22:06;12.54;73.09
71096;DHT22;58753;49.440;11.126;2024-02-16T11:24:36;12.52;73.05
71096;DHT22;58753;49.440;11.126;2024-02-16T11:27:03;12.59;72.71
71096;DHT22;58753;49.440;11.126;2024-02-16T11:29:33;12.59;72.53
71096;DHT22;58753;49.440;11.126;2024-02-16T11:32:00;12.62;72.47
71096;DHT22;58753;49.440;11.126;2024-02-16T11:34:26;12.59;72.36
71096;DHT22;58753;49.440;11.126;2024-02-16T11:36:54;12.65;72.40
71096;DHT22;58753;49.440;11.126;2024-02-16T11:39:20;12.68;72.29
71096;DHT22;58753;49.440;11.126;2024-02-16T11:41:45;12.69;72.11
71096;DHT22;58753;49.440;11.126;2024-02-16T11:44:13;12.73;72.04
71096;DHT22;58753;49.440;11.126;2024-02-16T11:46:41;12.76;72.15
71096;DHT22;58753;49.440;11.126;2024-02-16T11:49:08;12.79;72.21
71096;DHT22;58753;49.440;11.126;2024-02-16T11:51:34;12.82;72.12
71096;DHT22;58753;49.440;11.126;2024-02-16T11:53:59;12.83;72.09
71096;DHT22;58753;49.440;11.126;2024-02-16T11:56:25;12.86;71.95
71096;DHT22;58753;49.440;11.126;2024-02-16T11:58:52;12.86;71.84
71096;DHT22;58753;49.440;11.126;2024-02-16T12:01:18;12.88;71.86
71096;DHT22;58753;49.440;11.126;2024-02-16T12:03:43;12.89;71.78
71096;DHT22;58753;49.440;11.126;2024-02-16T12:06:09;12.92;71.92
71096;DHT22;58753;49.440;11.126;2024-02-16T12:08:35;12.96;71.93
71096;DHT22;58753;49.440;11.126;2024-02-16T12:11:02;12.99;71.82
71096;DHT22;58753;49.440;11.126;2024-02-16T12:13:27;13.02;71.92
71096;DHT22;58753;49.440;11.126;2024-02-16T12:15:53;13.05;72.04
71096;DHT22;58753;49.440;11.126;2024-02-16T12:18:25;13.07;72.08
71096;DHT22;58753;49.440;11.126;2024-02-16T12:20:59;13.16;72.17
71096;DHT22;58753;49.440;11.126;2024-02-16T12:23:24;13.19;72.17
71096;DHT22;58753;49.440;11.126;2024-02-16T12:25:50;13.27;72.15
71096;DHT22;58753;49.440;11.126;2024-02-16T12:28:15;13.30;71.87
71096;DHT22;58753;49.440;11.126;2024-02-16T12:30:41;13.35;71.85
71096;DHT22;58753;49.440;11.126;2024-02-16T12:33:06;13.42;71.34
71096;DHT22;58753;49.440;11.126;2024-02-16T12:35:31;13.46;71.29
71096;DHT22;58753;49.440;11.126;2024-02-16T12:37:57;13.48;70.68
71096;DHT22;58753;49.440;11.126;2024-02-16T12:40:22;13.56;70.65
71096;DHT22;58753;49.440;11.126;2024-02-16T12:42:48;13.61;70.51
71096;DHT22;58753;49.440;11.126;2024-02-16T12:45:13;13.61;70.05
71096;DHT22;58753;49.440;11.126;2024-02-16T12:47:41;13.61;69.56
71096;DHT22;58753;49.440;11.126;2024-02-16T12:50:07;13.61;69.72
71096;DHT22;58753;49.440;11.126;2024-02-16T12:52:32;13.61;69.45
71096;DHT22;58753;49.440;11.126;2024-02-16T12:54:59;13.63;69.62
71096;DHT22;58753;49.440;11.126;2024-02-16T12:57:24;13.67;69.76
71096;DHT22;58753;49.440;11.126;2024-02-16T12:59:50;13.70;69.65
71096;DHT22;58753;49.440;11.126;2024-02-16T13:02:15;13.73;69.72
71096;DHT22;58753;49.440;11.126;2024-02-16T13:04:41;13.78;69.65
71096;DHT22;58753;49.440;11.126;2024-02-16T13:07:06;13.88;69.54
71096;DHT22;58753;49.440;11.126;2024-02-16T13:09:31;13.98;69.29
71096;DHT22;58753;49.440;11.126;2024-02-16T13:11:57;14.19;69.56
71096;DHT22;58753;49.440;11.126;2024-02-16T13:14:22;14.41;68.67
71096;DHT22;58753;49.440;11.126;2024-02-16T13:16:48;14.90;68.59
71096;DHT22;58753;49.440;11.126;2024-02-16T13:19:13;15.44;66.40
71096;DHT22;58753;49.440;11.126;2024-02-16T13:21:39;15.44;65.38
71096;DHT22;58753;49.440;11.126;2024-02-16T13:24:05;15.54;65.62
71096;DHT22;58753;49.440;11.126;2024-02-16T13:26:31;16.15;65.94
71096;DHT22;58753;49.440;11.126;2024-02-16T13:28:56;16.25;64.10
71096;DHT22;58753;49.440;11.126;2024-02-16T13:31:23;16.08;63.59
71096;DHT22;58753;49.440;11.126;2024-02-16T13:33:49;15.85;63.26
71096;DHT22;58753;49.440;11.126;2024-02-16T13:36:15;15.77;63.66
71096;DHT22;58753;49.440;11.126;2024-02-16T13:38:40;15.62;63.54
71096;DHT22;58753;49.440;11.126;2024-02-16T13:41:06;15.44;63.11
71096;DHT22;58753;49.440;11.126;2024-02-16T13:43:31;15.26;62.91
71096;DHT22;58753;49.440;11.126;2024-02-16T13:45:56;15.11;63.36
71096;DHT22;58753;49.440;11.126;2024-02-16T13:48:24;15.03;63.70
71096;DHT22;58753;49.440;11.126;2024-02-16T13:50:50;14.93;63.89
71096;DHT22;58753;49.440;11.126;2024-02-16T13:53:16;14.83;64.00
71096;DHT22;58753;49.440;11.126;2024-02-16T13:55:43;14.80;64.14
71096;DHT22;58753;49.440;11.126;2024-02-16T13:58:11;14.75;64.25
71096;DHT22;58753;49.440;11.126;2024-02-16T14:00:37;14.68;64.45
71096;DHT22;58753;49.440;11.126;2024-02-16T14:03:04;14.65;64.57
71096;DHT22;58753;49.440;11.126;2024-02-16T14:05:31;14.61;64.72
71096;DHT22;58753;49.440;11.126;2024-02-16T14:07:56;14.56;65.02
71096;DHT22;58753;49.440;11.126;2024-02-16T14:10:22;14.55;65.25
71096;DHT22;58753;49.440;11.126;2024-02-16T14:12:47;14.48;65.10
71096;DHT22;58753;49.440;11.126;2024-02-16T14:15:13;14.42;65.44
71096;DHT22;58753;49.440;11.126;2024-02-16T14:17:41;14.39;65.80
71096;DHT22;58753;49.440;11.126;2024-02-16T14:20:08;14.36;66.08
71096;DHT22;58753;49.440;11.126;2024-02-16T14:22:33;14.36;66.39
71096;DHT22;58753;49.440;11.126;2024-02-16T14:24:59;14.42;66.42
71096;DHT22;58753;49.440;11.126;2024-02-16T14:27:25;14.43;66.87
71096;DHT22;58753;49.440;11.126;2024-02-16T14:29:50;14.45;67.03
71096;DHT22;58753;49.440;11.126;2024-02-16T14:32:16;14.48;67.05
71096;DHT22;58753;49.440;11.126;2024-02-16T14:34:42;14.49;67.15
71096;DHT22;58753;49.440;11.126;2024-02-16T14:37:09;14.46;67.11
71096;DHT22;58753;49.440;11.126;2024-02-16T14:39:35;14.42;67.10
71096;DHT22;58753;49.440;11.126;2024-02-16T14:42:00;14.36;67.22
71096;DHT22;58753;49.440;11.126;2024-02-16T14:44:25;14.31;67.43
71096;DHT22;58753;49.440;11.126;2024-02-16T14:46:51;14.22;67.50
71096;DHT22;58753;49.440;11.126;2024-02-16T14:49:16;14.02;67.55
71096;DHT22;58753;49.440;11.126;2024-02-16T14:51:46;13.91;67.96
71096;DHT22;58753;49.440;11.126;2024-02-16T14:54:13;13.81;68.29
71096;DHT22;58753;49.440;11.126;2024-02-16T14:56:38;13.71;68.60
71096;DHT22;58753;49.440;11.126;2024-02-16T14:59:04;13.67;68.89
71096;DHT22;58753;49.440;11.126;2024-02-16T15:01:31;13.58;69.18
71096;DHT22;58753;49.440;11.126;2024-02-16T15:03:57;13.56;69.44
71096;DHT22;58753;49.440;11.126;2024-02-16T15:06:22;13.50;69.66
71096;DHT22;58753;49.440;11.126;2024-02-16T15:08:48;13.42;69.91
71096;DHT22;58753;49.440;11.126;2024-02-16T15:11:13;13.35;70.13
71096;DHT22;58753;49.440;11.126;2024-02-16T15:13:39;13.28;70.41
71096;DHT22;58753;49.440;11.126;2024-02-16T15:16:05;13.27;70.63
71096;DHT22;58753;49.440;11.126;2024-02-16T15:18:30;13.20;70.88
71096;DHT22;58753;49.440;11.126;2024-02-16T15:20:56;13.16;71.11
71096;DHT22;58753;49.440;11.126;2024-02-16T15:23:22;13.13;71.21
71096;DHT22;58753;49.440;11.126;2024-02-16T15:25:47;13.06;71.40